createdAt,value
2016-06-12T00:00:49.998Z,0
2016-06-12T00:01:49.876Z,0
2016-06-12T00:02:49.926Z,0
2016-06-12T00:03:50.101Z,0
2016-06-12T00:04:50.151Z,0
2016-06-12T00:05:50.185Z,0
2016-06-12T00:06:50.220Z,0
2016-06-12T00:07:50.255Z,0
2016-06-12T00:08:50.314Z,0
2016-06-12T00:09:50.387Z,0
2016-06-12T00:10:50.475Z,0
2016-06-12T00:11:50.547Z,0
2016-06-12T00:12:50.619Z,0
2016-06-12T00:13:50.676Z,0
2016-06-12T00:14:50.739Z,0
2016-06-12T00:15:50.772Z,0
2016-06-12T00:16:50.835Z,0
2016-06-12T00:17:50.883Z,0
2016-06-12T00:18:50.926Z,0
2016-06-12T00:19:51.762Z,0
2016-06-12T00:20:51.082Z,0
2016-06-12T00:21:51.043Z,0
2016-06-12T00:22:51.098Z,0
2016-06-12T00:23:51.135Z,0
2016-06-12T00:24:51.172Z,0
2016-06-12T00:25:51.224Z,0
2016-06-12T00:26:51.260Z,0
2016-06-12T00:27:51.296Z,0
2016-06-12T00:28:51.331Z,0
2016-06-12T00:29:51.367Z,0
2016-06-12T00:30:51.416Z,0
2016-06-12T00:31:51.452Z,0
2016-06-12T00:32:51.486Z,0
2016-06-12T00:33:51.521Z,0
2016-06-12T00:34:51.337Z,0
2016-06-12T00:35:52.058Z,0
2016-06-12T00:36:51.641Z,0
2016-06-12T00:37:51.675Z,0
2016-06-12T00:38:51.709Z,0
2016-06-12T00:39:51.744Z,0
2016-06-12T00:40:51.778Z,0
2016-06-12T00:41:51.813Z,0
2016-06-12T00:42:51.862Z,0
2016-06-12T00:43:51.913Z,0
2016-06-12T00:44:51.931Z,0
2016-06-12T00:45:51.965Z,0
2016-06-12T00:46:52.000Z,0
2016-06-12T00:47:52.018Z,0
2016-06-12T00:48:52.084Z,0
2016-06-12T00:49:52.307Z,0
2016-06-12T00:50:51.855Z,0
2016-06-12T00:51:52.219Z,0
2016-06-12T00:52:52.221Z,0
2016-06-12T00:53:52.115Z,0
2016-06-12T00:54:52.306Z,0
2016-06-12T00:55:52.339Z,0
2016-06-12T00:56:52.218Z,0
2016-06-12T00:57:52.268Z,0
2016-06-12T00:58:52.443Z,0
2016-06-12T00:59:52.337Z,0
2016-06-12T01:00:52.511Z,0
2016-06-12T01:01:52.561Z,0
2016-06-12T01:02:52.611Z,0
2016-06-12T01:03:52.631Z,0
2016-06-12T01:04:52.633Z,0
2016-06-12T01:05:53.683Z,0
2016-06-12T01:06:52.748Z,0
2016-06-12T01:07:52.768Z,0
2016-06-12T01:08:52.676Z,0
2016-06-12T01:09:52.696Z,0
2016-06-12T01:10:52.902Z,0
2016-06-12T01:11:52.935Z,0
2016-06-12T01:12:52.955Z,0
2016-06-12T01:13:53.005Z,0
2016-06-12T01:14:53.039Z,0
2016-06-12T01:15:53.074Z,0
2016-06-12T01:16:53.123Z,0
2016-06-12T01:17:53.143Z,0
2016-06-12T01:18:53.191Z,0
2016-06-12T01:19:53.116Z,0
2016-06-12T01:20:53.635Z,0
2016-06-12T01:21:53.294Z,0
2016-06-12T01:22:53.345Z,0
2016-06-12T01:23:53.364Z,0
2016-06-12T01:24:53.414Z,0
2016-06-12T01:25:53.448Z,0
2016-06-12T01:26:53.466Z,0
2016-06-12T01:27:53.516Z,0
2016-06-12T01:28:53.566Z,0
2016-06-12T01:29:53.585Z,0
2016-06-12T01:30:53.636Z,0
2016-06-12T01:31:53.669Z,0
2016-06-12T01:32:53.547Z,0
2016-06-12T01:33:53.738Z,0
2016-06-12T01:34:55.257Z,0
2016-06-12T01:35:53.901Z,0
2016-06-12T01:36:53.857Z,0
2016-06-12T01:37:53.891Z,0
2016-06-12T01:38:53.910Z,0
2016-06-12T01:39:53.960Z,0
2016-06-12T01:40:53.995Z,0
2016-06-12T01:41:54.028Z,0
2016-06-12T01:42:54.062Z,0
2016-06-12T01:43:54.097Z,0
2016-06-12T01:44:54.132Z,0
2016-06-12T01:45:54.182Z,0
2016-06-12T01:46:54.215Z,0
2016-06-12T01:47:54.235Z,0
2016-06-12T01:48:54.284Z,0
2016-06-12T01:49:54.334Z,0
2016-06-12T01:50:55.478Z,0
2016-06-12T01:51:54.403Z,0
2016-06-12T01:52:54.437Z,0
2016-06-12T01:53:54.174Z,0
2016-06-12T01:54:54.507Z,0
2016-06-12T01:55:54.555Z,0
2016-06-12T01:56:54.433Z,0
2016-06-12T01:57:54.641Z,0
2016-06-12T01:58:54.658Z,0
2016-06-12T01:59:54.693Z,0
2016-06-12T02:00:54.728Z,0
2016-06-12T02:01:54.762Z,0
2016-06-12T02:02:54.796Z,0
2016-06-12T02:03:54.830Z,0
2016-06-12T02:04:55.083Z,0
2016-06-12T02:05:55.586Z,0
2016-06-12T02:06:54.964Z,0
2016-06-12T02:07:54.827Z,0
2016-06-12T02:08:55.018Z,0
2016-06-12T02:09:55.053Z,0
2016-06-12T02:10:55.087Z,0
2016-06-12T02:11:55.137Z,0
2016-06-12T02:12:55.171Z,0
2016-06-12T02:13:55.049Z,0
2016-06-12T02:14:55.239Z,0
2016-06-12T02:15:55.289Z,0
2016-06-12T02:16:55.308Z,0
2016-06-12T02:17:55.342Z,0
2016-06-12T02:18:55.376Z,0
2016-06-12T02:19:55.442Z,0
2016-06-12T02:20:55.882Z,0
2016-06-12T02:21:55.558Z,0
2016-06-12T02:22:55.545Z,0
2016-06-12T02:23:55.610Z,0
2016-06-12T02:24:55.754Z,0
2016-06-12T02:25:55.633Z,0
2016-06-12T02:26:55.683Z,0
2016-06-12T02:27:55.732Z,0
2016-06-12T02:28:55.751Z,0
2016-06-12T02:29:55.801Z,0
2016-06-12T02:30:55.679Z,0
2016-06-12T02:31:55.854Z,0
2016-06-12T02:32:55.905Z,0
2016-06-12T02:33:55.797Z,0
2016-06-12T02:34:55.988Z,0
2016-06-12T02:35:56.210Z,0
2016-06-12T02:36:56.041Z,0
2016-06-12T02:37:56.092Z,0
2016-06-12T02:38:56.126Z,0
2016-06-12T02:39:56.176Z,0
2016-06-12T02:40:56.193Z,0
2016-06-12T02:41:56.229Z,0
2016-06-12T02:42:56.279Z,0
2016-06-12T02:43:56.313Z,0
2016-06-12T02:44:56.175Z,0
2016-06-12T02:45:56.381Z,0
2016-06-12T02:46:56.416Z,0
2016-06-12T02:47:56.434Z,0
2016-06-12T02:48:56.500Z,0
2016-06-12T02:49:56.534Z,0
2016-06-12T02:50:56.693Z,0
2016-06-12T02:51:56.588Z,0
2016-06-12T02:52:56.480Z,0
2016-06-12T02:53:56.515Z,0
2016-06-12T02:54:56.722Z,0
2016-06-12T02:55:56.740Z,0
2016-06-12T02:56:56.789Z,0
2016-06-12T02:57:56.825Z,0
2016-06-12T02:58:56.874Z,0
2016-06-12T02:59:56.909Z,0
2016-06-12T03:00:56.943Z,0
2016-06-12T03:01:56.805Z,0
2016-06-12T03:02:56.996Z,0
2016-06-12T03:03:57.046Z,0
2016-06-12T03:04:57.065Z,0
2016-06-12T03:05:57.614Z,0
2016-06-12T03:06:57.148Z,0
2016-06-12T03:07:57.184Z,0
2016-06-12T03:08:57.218Z,0
2016-06-12T03:09:57.282Z,0
2016-06-12T03:10:57.286Z,0
2016-06-12T03:11:57.336Z,0
2016-06-12T03:12:57.371Z,0
2016-06-12T03:13:57.405Z,0
2016-06-12T03:14:57.439Z,0
2016-06-12T03:15:57.490Z,0
2016-06-12T03:16:57.523Z,0
2016-06-12T03:17:57.557Z,5
2016-06-12T03:18:57.592Z,5
2016-06-12T03:19:57.642Z,5
2016-06-12T03:20:58.036Z,5
2016-06-12T03:21:57.710Z,5
2016-06-12T03:22:57.588Z,5
2016-06-12T03:23:57.780Z,5
2016-06-12T03:24:57.798Z,5
2016-06-12T03:25:57.864Z,5
2016-06-12T03:26:57.882Z,5
2016-06-12T03:27:57.792Z,5
2016-06-12T03:28:57.795Z,5
2016-06-12T03:29:57.986Z,10
2016-06-12T03:30:58.035Z,10
2016-06-12T03:31:58.069Z,10
2016-06-12T03:32:58.104Z,10
2016-06-12T03:33:58.139Z,10
2016-06-12T03:34:58.173Z,10
2016-06-12T03:35:58.284Z,10
2016-06-12T03:36:58.257Z,10
2016-06-12T03:37:58.276Z,10
2016-06-12T03:38:58.326Z,10
2016-06-12T03:39:58.344Z,10
2016-06-12T03:40:58.269Z,15
2016-06-12T03:41:58.429Z,15
2016-06-12T03:42:58.463Z,15
2016-06-12T03:43:58.341Z,15
2016-06-12T03:44:58.547Z,15
2016-06-12T03:45:58.565Z,15
2016-06-12T03:46:58.601Z,15
2016-06-12T03:47:58.494Z,15
2016-06-12T03:48:58.684Z,15
2016-06-12T03:49:58.719Z,15
2016-06-12T03:50:58.722Z,20
2016-06-12T03:51:58.803Z,20
2016-06-12T03:52:58.822Z,20
2016-06-12T03:53:58.872Z,20
2016-06-12T03:54:58.891Z,20
2016-06-12T03:55:58.940Z,20
2016-06-12T03:56:58.974Z,20
2016-06-12T03:57:59.024Z,20
2016-06-12T03:58:59.058Z,25
2016-06-12T03:59:59.078Z,25
2016-06-12T04:00:59.112Z,25
2016-06-12T04:01:59.161Z,25
2016-06-12T04:02:59.180Z,30
2016-06-12T04:03:59.106Z,30
2016-06-12T04:04:59.265Z,30
2016-06-12T04:05:59.330Z,30
2016-06-12T04:06:59.193Z,35
2016-06-12T04:07:59.227Z,35
2016-06-12T04:08:59.277Z,35
2016-06-12T04:10:59.470Z,40
2016-06-12T04:11:59.536Z,40
2016-06-12T04:12:59.758Z,40
2016-06-12T04:13:59.590Z,40
2016-06-12T04:14:59.639Z,45
2016-06-12T04:15:59.658Z,45
2016-06-12T04:16:59.708Z,45
2016-06-12T04:17:59.742Z,50
2016-06-12T04:18:59.619Z,50
2016-06-12T04:19:59.811Z,50
2016-06-12T04:21:00.517Z,50
2016-06-12T04:21:59.879Z,55
2016-06-12T04:22:59.929Z,55
2016-06-12T04:23:59.964Z,55
2016-06-12T04:24:59.999Z,60
2016-06-12T04:26:00.048Z,60
2016-06-12T04:27:00.082Z,60
2016-06-12T04:28:00.101Z,60
2016-06-12T04:29:00.151Z,65
2016-06-12T04:30:00.170Z,65
2016-06-12T04:31:00.220Z,70
2016-06-12T04:32:00.253Z,70
2016-06-12T04:33:00.148Z,75
2016-06-12T04:34:00.323Z,80
2016-06-12T04:35:00.216Z,80
2016-06-12T04:36:00.266Z,85
2016-06-12T04:37:00.441Z,90
2016-06-12T04:38:00.492Z,95
2016-06-12T04:39:00.525Z,95
2016-06-12T04:40:00.544Z,95
2016-06-12T04:41:00.579Z,95
2016-06-12T04:42:00.629Z,95
2016-06-12T04:43:00.663Z,90
2016-06-12T04:44:00.697Z,90
2016-06-12T04:45:00.747Z,90
2016-06-12T04:46:00.766Z,90
2016-06-12T04:47:00.675Z,90
2016-06-12T04:48:00.850Z,90
2016-06-12T04:49:00.728Z,90
2016-06-12T04:50:00.919Z,90
2016-06-12T04:51:01.390Z,90
2016-06-12T04:52:01.004Z,90
2016-06-12T04:53:01.021Z,90
2016-06-12T04:54:01.071Z,90
2016-06-12T04:55:00.950Z,95
2016-06-12T04:56:01.141Z,95
2016-06-12T04:57:01.190Z,100
2016-06-12T04:58:01.209Z,105
2016-06-12T04:59:01.243Z,105
2016-06-12T05:00:01.137Z,110
2016-06-12T05:01:01.328Z,105
2016-06-12T05:02:01.362Z,105
2016-06-12T05:03:01.427Z,105
2016-06-12T05:04:01.446Z,105
2016-06-12T05:05:01.480Z,105
2016-06-12T05:06:01.625Z,110
2016-06-12T05:07:01.565Z,110
2016-06-12T05:08:01.583Z,115
2016-06-12T05:09:01.633Z,115
2016-06-12T05:10:01.652Z,120
2016-06-12T05:11:01.718Z,120
2016-06-12T05:12:01.720Z,125
2016-06-12T05:13:01.771Z,125
2016-06-12T05:14:01.805Z,130
2016-06-12T05:15:01.839Z,135
2016-06-12T05:16:01.889Z,140
2016-06-12T05:17:01.923Z,145
2016-06-12T05:18:01.958Z,145
2016-06-12T05:19:01.993Z,150
2016-06-12T05:20:02.042Z,150
2016-06-12T05:21:02.295Z,155
2016-06-12T05:22:02.799Z,160
2016-06-12T05:23:02.146Z,160
2016-06-12T05:24:02.194Z,165
2016-06-12T05:25:02.230Z,170
2016-06-12T05:26:02.247Z,170
2016-06-12T05:27:02.298Z,170
2016-06-12T05:28:02.348Z,170
2016-06-12T05:29:02.367Z,170
2016-06-12T05:30:02.417Z,175
2016-06-12T05:31:02.467Z,175
2016-06-12T05:32:02.501Z,180
2016-06-12T05:33:02.520Z,180
2016-06-12T05:34:02.569Z,190
2016-06-12T05:35:02.589Z,195
2016-06-12T05:36:02.981Z,215
2016-06-12T05:37:02.767Z,225
2016-06-12T05:38:02.738Z,230
2016-06-12T05:39:02.757Z,250
2016-06-12T05:40:02.791Z,270
2016-06-12T05:41:02.841Z,300
2016-06-12T05:42:02.860Z,325
2016-06-12T05:43:02.910Z,300
2016-06-12T05:44:02.944Z,300
2016-06-12T05:45:02.978Z,305
2016-06-12T05:46:03.028Z,310
2016-06-12T05:47:03.078Z,310
2016-06-12T05:48:03.112Z,320
2016-06-12T05:49:03.146Z,340
2016-06-12T05:50:03.181Z,360
2016-06-12T05:51:03.278Z,375
2016-06-12T05:52:04.578Z,315
2016-06-12T05:53:03.300Z,330
2016-06-12T05:54:03.334Z,330
2016-06-12T05:55:03.212Z,315
2016-06-12T05:56:03.403Z,310
2016-06-12T05:57:03.453Z,295
2016-06-12T05:58:03.504Z,290
2016-06-12T05:59:03.537Z,285
2016-06-12T06:00:03.571Z,295
2016-06-12T06:01:03.622Z,295
2016-06-12T06:02:03.655Z,290
2016-06-12T06:03:03.519Z,295
2016-06-12T06:04:03.724Z,290
2016-06-12T06:05:03.775Z,280
2016-06-12T06:06:04.839Z,280
2016-06-12T06:07:04.499Z,275
2016-06-12T06:08:03.909Z,270
2016-06-12T06:09:03.943Z,270
2016-06-12T06:10:03.961Z,275
2016-06-12T06:11:04.011Z,270
2016-06-12T06:12:04.061Z,270
2016-06-12T06:13:04.095Z,270
2016-06-12T06:14:04.130Z,265
2016-06-12T06:15:04.165Z,270
2016-06-12T06:16:04.198Z,265
2016-06-12T06:17:04.248Z,265
2016-06-12T06:18:04.299Z,265
2016-06-12T06:19:04.349Z,260
2016-06-12T06:20:04.367Z,255
2016-06-12T06:21:04.291Z,255
2016-06-12T06:22:04.311Z,255
2016-06-12T06:23:04.501Z,265
2016-06-12T06:24:04.536Z,280
2016-06-12T06:25:04.429Z,290
2016-06-12T06:26:04.621Z,300
2016-06-12T06:27:04.638Z,300
2016-06-12T06:28:04.704Z,305
2016-06-12T06:29:04.739Z,310
2016-06-12T06:30:04.773Z,315
2016-06-12T06:31:04.808Z,325
2016-06-12T06:32:04.857Z,335
2016-06-12T06:33:04.892Z,355
2016-06-12T06:34:04.942Z,365
2016-06-12T06:35:04.975Z,380
2016-06-12T06:36:06.120Z,395
2016-06-12T06:37:05.138Z,405
2016-06-12T06:38:05.094Z,420
2016-06-12T06:39:05.129Z,430
2016-06-12T06:40:05.179Z,440
2016-06-12T06:41:05.214Z,450
2016-06-12T06:42:05.247Z,460
2016-06-12T06:43:05.142Z,465
2016-06-12T06:44:05.347Z,470
2016-06-12T06:45:05.366Z,470
2016-06-12T06:46:05.416Z,460
2016-06-12T06:47:05.450Z,450
2016-06-12T06:48:05.500Z,445
2016-06-12T06:49:05.534Z,440
2016-06-12T06:50:05.569Z,440
2016-06-12T06:51:05.978Z,440
2016-06-12T06:52:05.997Z,440
2016-06-12T06:53:05.718Z,450
2016-06-12T06:54:05.737Z,460
2016-06-12T06:55:05.771Z,470
2016-06-12T06:56:05.837Z,485
2016-06-12T06:57:05.888Z,500
2016-06-12T06:58:05.922Z,505
2016-06-12T06:59:05.955Z,510
2016-06-12T07:00:05.990Z,510
2016-06-12T07:01:05.884Z,510
2016-06-12T07:02:06.075Z,505
2016-06-12T07:03:06.109Z,495
2016-06-12T07:04:06.159Z,475
2016-06-12T07:05:06.209Z,460
2016-06-12T07:06:07.180Z,435
2016-06-12T07:07:06.997Z,420
2016-06-12T07:08:06.344Z,415
2016-06-12T07:09:06.378Z,405
2016-06-12T07:10:06.411Z,395
2016-06-12T07:11:06.446Z,390
2016-06-12T07:12:06.496Z,395
2016-06-12T07:13:06.546Z,390
2016-06-12T07:14:06.579Z,400
2016-06-12T07:15:06.630Z,405
2016-06-12T07:16:06.664Z,410
2016-06-12T07:17:06.699Z,415
2016-06-12T07:18:06.749Z,415
2016-06-12T07:19:06.783Z,410
2016-06-12T07:20:06.848Z,405
2016-06-12T07:21:06.883Z,405
2016-06-12T07:22:08.026Z,395
2016-06-12T07:23:06.952Z,395
2016-06-12T07:24:07.018Z,400
2016-06-12T07:25:07.051Z,400
2016-06-12T07:26:07.086Z,400
2016-06-12T07:27:07.119Z,400
2016-06-12T07:28:07.169Z,405
2016-06-12T07:29:07.048Z,415
2016-06-12T07:30:07.270Z,420
2016-06-12T07:31:07.320Z,420
2016-06-12T07:32:07.323Z,420
2016-06-12T07:33:07.388Z,420
2016-06-12T07:34:07.423Z,420
2016-06-12T07:35:07.457Z,415
2016-06-12T07:36:07.491Z,420
2016-06-12T07:37:07.869Z,420
2016-06-12T07:38:07.592Z,425
2016-06-12T07:39:07.626Z,435
2016-06-12T07:40:07.676Z,460
2016-06-12T07:41:07.570Z,480
2016-06-12T07:42:07.760Z,490
2016-06-12T07:43:07.794Z,515
2016-06-12T07:44:07.844Z,525
2016-06-12T07:45:07.878Z,520
2016-06-12T07:46:07.960Z,520
2016-06-12T07:47:07.963Z,530
2016-06-12T07:48:08.012Z,550
2016-06-12T07:49:08.062Z,600
2016-06-12T07:50:08.112Z,840
2016-06-12T07:51:08.146Z,800
2016-06-12T07:52:08.540Z,650
2016-06-12T07:53:08.216Z,685
2016-06-12T07:54:08.281Z,700
2016-06-12T07:55:08.316Z,665
2016-06-12T07:56:08.350Z,860
2016-06-12T07:57:08.400Z,690
2016-06-12T07:58:08.450Z,700
2016-06-12T07:59:08.500Z,665
2016-06-12T08:00:08.534Z,615
2016-06-12T08:01:08.568Z,595
2016-06-12T08:02:08.603Z,580
2016-06-12T08:03:08.668Z,585
2016-06-12T08:04:08.703Z,570
2016-06-12T08:05:08.752Z,540
2016-06-12T08:06:08.786Z,535
2016-06-12T08:07:08.837Z,535
2016-06-12T08:08:08.870Z,505
2016-06-12T08:09:08.921Z,490
2016-06-12T08:10:08.955Z,475
2016-06-12T08:11:09.005Z,465
2016-06-12T08:12:09.071Z,460
2016-06-12T08:13:09.089Z,460
2016-06-12T08:14:09.139Z,470
2016-06-12T08:15:09.174Z,480
2016-06-12T08:16:09.223Z,485
2016-06-12T08:17:09.101Z,485
2016-06-12T08:18:09.308Z,490
2016-06-12T08:19:09.358Z,500
2016-06-12T08:20:09.407Z,535
2016-06-12T08:21:09.443Z,580
2016-06-12T08:22:09.914Z,670
2016-06-12T08:23:09.527Z,975
2016-06-12T08:24:09.420Z,870
2016-06-12T08:25:09.611Z,930
2016-06-12T08:26:09.646Z,845
2016-06-12T08:27:09.711Z,885
2016-06-12T08:28:09.745Z,1070
2016-06-12T08:29:09.796Z,1090
2016-06-12T08:30:09.829Z,1005
2016-06-12T08:31:09.864Z,960
2016-06-12T08:32:09.913Z,950
2016-06-12T08:33:09.963Z,925
2016-06-12T08:34:09.998Z,805
2016-06-12T08:35:10.047Z,715
2016-06-12T08:36:09.942Z,745
2016-06-12T08:37:11.273Z,685
2016-06-12T08:38:10.182Z,735
2016-06-12T08:39:10.232Z,765
2016-06-12T08:40:10.313Z,790
2016-06-12T08:41:10.316Z,785
2016-06-12T08:42:10.367Z,890
2016-06-12T08:43:10.417Z,925
2016-06-12T08:44:10.450Z,830
2016-06-12T08:45:10.501Z,810
2016-06-12T08:46:10.550Z,855
2016-06-12T08:47:10.584Z,725
2016-06-12T08:48:10.635Z,685
2016-06-12T08:49:10.685Z,725
2016-06-12T08:50:10.750Z,700
2016-06-12T08:51:10.785Z,725
2016-06-12T08:52:11.116Z,730
2016-06-12T08:53:10.884Z,815
2016-06-12T08:54:10.904Z,840
2016-06-12T08:55:10.954Z,810
2016-06-12T08:56:11.003Z,900
2016-06-12T08:57:11.069Z,965
2016-06-12T08:58:11.103Z,845
2016-06-12T08:59:11.153Z,845
2016-06-12T09:00:11.187Z,835
2016-06-12T09:01:11.222Z,775
2016-06-12T09:02:11.287Z,725
2016-06-12T09:03:11.306Z,700
2016-06-12T09:04:12.356Z,725
2016-06-12T09:05:11.656Z,750
2016-06-12T09:06:11.456Z,660
2016-06-12T09:07:11.755Z,640
2016-06-12T09:08:11.541Z,650
2016-06-12T09:09:11.574Z,645
2016-06-12T09:10:11.484Z,650
2016-06-12T09:11:11.675Z,640
2016-06-12T09:12:11.724Z,635
2016-06-12T09:13:11.602Z,630
2016-06-12T09:14:11.825Z,625
2016-06-12T09:15:11.884Z,640
2016-06-12T09:16:11.975Z,665
2016-06-12T09:17:12.066Z,700
2016-06-12T09:18:12.016Z,660
2016-06-12T09:19:12.231Z,800
2016-06-12T09:20:12.280Z,860
2016-06-12T09:21:12.360Z,910
2016-06-12T09:22:12.784Z,800
2016-06-12T09:23:12.474Z,750
2016-06-12T09:24:12.522Z,765
2016-06-12T09:25:12.592Z,910
2016-06-12T09:26:12.616Z,1320
2016-06-12T09:27:12.671Z,1430
2016-06-12T09:28:12.758Z,1455
2016-06-12T09:29:12.797Z,1440
2016-06-12T09:30:12.834Z,1330
2016-06-12T09:31:12.884Z,1190
2016-06-12T09:32:12.922Z,1095
2016-06-12T09:33:12.988Z,1105
2016-06-12T09:34:13.009Z,1030
2016-06-12T09:35:13.060Z,1400
2016-06-12T09:36:13.126Z,1305
2016-06-12T09:37:13.161Z,1365
2016-06-12T09:38:13.493Z,1315
2016-06-12T09:39:13.248Z,1265
2016-06-12T09:40:13.313Z,1210
2016-06-12T09:41:13.347Z,1280
2016-06-12T09:42:13.383Z,1170
2016-06-12T09:43:13.432Z,1220
2016-06-12T09:44:13.483Z,1215
2016-06-12T09:45:13.549Z,1020
2016-06-12T09:46:13.599Z,1045
2016-06-12T09:47:13.633Z,970
2016-06-12T09:48:13.683Z,1070
2016-06-12T09:49:13.733Z,930
2016-06-12T09:50:13.798Z,660
2016-06-12T09:51:13.818Z,620
2016-06-12T09:52:14.445Z,610
2016-06-12T09:53:14.370Z,610
2016-06-12T09:54:13.967Z,635
2016-06-12T09:55:14.002Z,660
2016-06-12T09:56:14.066Z,715
2016-06-12T09:57:14.085Z,745
2016-06-12T09:58:14.151Z,810
2016-06-12T09:59:14.201Z,910
2016-06-12T10:00:14.235Z,1155
2016-06-12T10:01:14.270Z,1115
2016-06-12T10:02:14.320Z,725
2016-06-12T10:03:14.354Z,660
2016-06-12T10:04:14.451Z,650
2016-06-12T10:05:14.485Z,650
2016-06-12T10:06:14.520Z,680
2016-06-12T10:07:14.428Z,710
2016-06-12T10:08:14.869Z,735
2016-06-12T10:09:14.701Z,740
2016-06-12T10:10:14.688Z,780
2016-06-12T10:11:14.737Z,770
2016-06-12T10:12:14.772Z,800
2016-06-12T10:13:14.838Z,730
2016-06-12T10:14:14.888Z,940
2016-06-12T10:15:14.922Z,1000
2016-06-12T10:16:14.956Z,735
2016-06-12T10:17:15.022Z,700
2016-06-12T10:18:15.040Z,665
2016-06-12T10:19:15.091Z,675
2016-06-12T10:20:15.171Z,680
2016-06-12T10:21:15.190Z,705
2016-06-12T10:22:15.585Z,705
2016-06-12T10:23:15.822Z,770
2016-06-12T10:24:15.325Z,690
2016-06-12T10:25:15.391Z,680
2016-06-12T10:26:15.425Z,705
2016-06-12T10:27:15.318Z,725
2016-06-12T10:28:15.525Z,870
2016-06-12T10:29:15.559Z,840
2016-06-12T10:30:15.593Z,1215
2016-06-12T10:31:15.644Z,745
2016-06-12T10:32:15.694Z,615
2016-06-12T10:33:15.744Z,565
2016-06-12T10:34:15.636Z,545
2016-06-12T10:35:15.828Z,530
2016-06-12T10:36:15.878Z,520
2016-06-12T10:37:16.115Z,515
2016-06-12T10:38:17.212Z,515
2016-06-12T10:39:15.996Z,515
2016-06-12T10:40:16.030Z,525
2016-06-12T10:41:16.080Z,555
2016-06-12T10:42:16.130Z,575
2016-06-12T10:43:16.008Z,610
2016-06-12T10:44:16.230Z,730
2016-06-12T10:45:16.280Z,545
2016-06-12T10:46:16.158Z,530
2016-06-12T10:47:16.348Z,550
2016-06-12T10:48:16.399Z,635
2016-06-12T10:49:16.449Z,710
2016-06-12T10:50:16.482Z,655
2016-06-12T10:51:16.533Z,655
2016-06-12T10:52:16.427Z,755
2016-06-12T10:53:17.272Z,840
2016-06-12T10:54:16.667Z,870
2016-06-12T10:55:16.717Z,890
2016-06-12T10:56:16.751Z,900
2016-06-12T10:57:16.817Z,910
2016-06-12T10:58:16.852Z,930
2016-06-12T10:59:16.870Z,940
2016-06-12T11:00:16.935Z,960
2016-06-12T11:01:16.985Z,1005
2016-06-12T11:02:17.020Z,1030
2016-06-12T11:03:17.070Z,1065
2016-06-12T11:04:17.119Z,1060
2016-06-12T11:05:17.139Z,975
2016-06-12T11:06:17.204Z,1015
2016-06-12T11:07:17.269Z,1110
2016-06-12T11:08:18.148Z,1245
2016-06-12T11:09:17.338Z,1335
2016-06-12T11:10:17.388Z,1345
2016-06-12T11:11:17.438Z,1420
2016-06-12T11:12:17.472Z,1410
2016-06-12T11:13:17.506Z,1325
2016-06-12T11:14:17.557Z,1195
2016-06-12T11:15:17.623Z,1060
2016-06-12T11:16:17.657Z,950
2016-06-12T11:17:17.707Z,930
2016-06-12T11:18:17.756Z,920
2016-06-12T11:19:17.807Z,915
2016-06-12T11:20:17.841Z,975
2016-06-12T11:21:17.906Z,1025
2016-06-12T11:22:18.487Z,1065
2016-06-12T11:23:17.537Z,1080
2016-06-12T11:24:18.025Z,1045
2016-06-12T11:25:18.090Z,1130
2016-06-12T11:26:18.140Z,1175
2016-06-12T11:27:18.190Z,1205
2016-06-12T11:28:18.224Z,1275
2016-06-12T11:29:18.259Z,1350
2016-06-12T11:30:18.324Z,1315
2016-06-12T11:31:18.202Z,1395
2016-06-12T11:32:18.393Z,1335
2016-06-12T11:33:18.475Z,1635
2016-06-12T11:34:18.509Z,1410
2016-06-12T11:35:18.559Z,1255
2016-06-12T11:36:18.609Z,1890
2016-06-12T11:37:18.988Z,2025
2016-06-12T11:38:18.662Z,1970
2016-06-12T11:39:18.759Z,1995
2016-06-12T11:40:18.809Z,2070
2016-06-12T11:41:18.858Z,2155
2016-06-12T11:42:18.908Z,2170
2016-06-12T11:43:18.973Z,2155
2016-06-12T11:44:19.008Z,2040
2016-06-12T11:45:18.902Z,1905
2016-06-12T11:46:18.952Z,1855
2016-06-12T11:47:19.143Z,1630
2016-06-12T11:48:19.208Z,755
2016-06-12T11:49:19.258Z,600
2016-06-12T11:50:19.308Z,555
2016-06-12T11:51:19.358Z,535
2016-06-12T11:52:19.408Z,515
2016-06-12T11:53:20.240Z,480
2016-06-12T11:54:19.523Z,505
2016-06-12T11:55:19.543Z,610
2016-06-12T11:56:19.608Z,1070
2016-06-12T11:57:19.657Z,545
2016-06-12T11:58:19.707Z,595
2016-06-12T11:59:19.742Z,465
2016-06-12T12:00:19.792Z,460
2016-06-12T12:01:19.873Z,1060
2016-06-12T12:02:19.892Z,985
2016-06-12T12:03:19.785Z,500
2016-06-12T12:04:19.835Z,475
2016-06-12T12:05:20.041Z,495
2016-06-12T12:06:20.076Z,455
2016-06-12T12:07:20.141Z,435
2016-06-12T12:08:20.472Z,440
2016-06-12T12:09:20.256Z,625
2016-06-12T12:10:20.260Z,465
2016-06-12T12:11:20.153Z,455
2016-06-12T12:12:20.359Z,570
2016-06-12T12:13:20.394Z,830
2016-06-12T12:14:20.444Z,935
2016-06-12T12:15:20.494Z,725
2016-06-12T12:16:20.404Z,1025
2016-06-12T12:17:20.578Z,590
2016-06-12T12:18:20.628Z,730
2016-06-12T12:19:20.679Z,1465
2016-06-12T12:20:20.729Z,1590
2016-06-12T12:21:20.607Z,1580
2016-06-12T12:22:20.813Z,1580
2016-06-12T12:23:21.207Z,1575
2016-06-12T12:24:20.912Z,1590
2016-06-12T12:25:20.963Z,1390
2016-06-12T12:26:20.997Z,1475
2016-06-12T12:27:21.030Z,1115
2016-06-12T12:28:21.097Z,1110
2016-06-12T12:29:21.147Z,1255
2016-06-12T12:30:21.181Z,600
2016-06-12T12:31:21.232Z,1265
2016-06-12T12:32:21.281Z,465
2016-06-12T12:33:21.347Z,375
2016-06-12T12:34:21.381Z,770
2016-06-12T12:35:21.430Z,340
2016-06-12T12:36:21.464Z,325
2016-06-12T12:37:21.514Z,325
2016-06-12T12:38:22.424Z,325
2016-06-12T12:39:21.615Z,320
2016-06-12T12:40:21.665Z,310
2016-06-12T12:41:21.542Z,305
2016-06-12T12:42:21.765Z,305
2016-06-12T12:43:21.783Z,295
2016-06-12T12:44:21.850Z,280
2016-06-12T12:45:21.883Z,270
2016-06-12T12:46:21.933Z,260
2016-06-12T12:47:21.998Z,240
2016-06-12T12:48:22.017Z,225
2016-06-12T12:49:22.084Z,210
2016-06-12T12:50:22.102Z,195
2016-06-12T12:51:22.168Z,180
2016-06-12T12:52:22.061Z,165
2016-06-12T12:53:22.330Z,160
2016-06-12T12:54:22.286Z,165
2016-06-12T12:55:22.336Z,180
2016-06-12T12:56:22.401Z,195
2016-06-12T12:57:22.420Z,220
2016-06-12T12:58:22.454Z,230
2016-06-12T12:59:22.521Z,245
2016-06-12T13:00:22.554Z,255
2016-06-12T13:01:22.605Z,275
2016-06-12T13:02:22.655Z,290
2016-06-12T13:03:22.688Z,300
2016-06-12T13:04:22.722Z,310
2016-06-12T13:05:22.804Z,330
2016-06-12T13:06:22.806Z,365
2016-06-12T13:07:22.873Z,465
2016-06-12T13:08:23.954Z,535
2016-06-12T13:09:22.957Z,535
2016-06-12T13:10:22.976Z,600
2016-06-12T13:11:22.886Z,1470
2016-06-12T13:12:22.935Z,1660
2016-06-12T13:13:23.125Z,1165
2016-06-12T13:14:23.175Z,950
2016-06-12T13:15:23.209Z,1355
2016-06-12T13:16:23.259Z,890
2016-06-12T13:17:23.326Z,985
2016-06-12T13:18:23.344Z,1145
2016-06-12T13:19:23.597Z,1330
2016-06-12T13:20:23.429Z,1375
2016-06-12T13:21:23.478Z,1535
2016-06-12T13:22:23.544Z,1685
2016-06-12T13:23:23.313Z,1795
2016-06-12T13:24:23.613Z,1570
2016-06-12T13:25:23.662Z,530
2016-06-12T13:26:23.712Z,475
2016-06-12T13:27:23.763Z,455
2016-06-12T13:28:23.796Z,460
2016-06-12T13:29:23.862Z,1160
2016-06-12T13:30:23.913Z,1055
2016-06-12T13:31:23.946Z,1405
2016-06-12T13:32:23.996Z,1430
2016-06-12T13:33:24.047Z,720
2016-06-12T13:34:24.097Z,355
2016-06-12T13:35:24.145Z,280
2016-06-12T13:36:24.181Z,245
2016-06-12T13:37:24.231Z,210
2016-06-12T13:38:24.860Z,190
2016-06-12T13:39:24.331Z,165
2016-06-12T13:40:24.365Z,145
2016-06-12T13:41:24.414Z,130
2016-06-12T13:42:24.480Z,115
2016-06-12T13:43:24.530Z,100
2016-06-12T13:44:24.596Z,85
2016-06-12T13:45:24.615Z,70
2016-06-12T13:46:24.509Z,60
2016-06-12T13:47:24.699Z,50
2016-06-12T13:48:24.732Z,40
2016-06-12T13:49:24.783Z,35
2016-06-12T13:50:24.817Z,25
2016-06-12T13:51:24.884Z,20
2016-06-12T13:52:24.917Z,20
2016-06-12T13:53:24.967Z,15
2016-06-12T13:54:24.987Z,15
2016-06-12T13:55:25.052Z,15
2016-06-12T13:56:25.101Z,15
2016-06-12T13:57:25.136Z,15
2016-06-12T13:58:25.186Z,15
2016-06-12T13:59:25.220Z,20
2016-06-12T14:00:25.255Z,25
2016-06-12T14:01:25.305Z,25
2016-06-12T14:02:25.339Z,30